Time,TemperatureF,DewpointF,PressureIn,WindDirection,WindDirectionDegrees,WindSpeedMPH,WindSpeedGustMPH,Humidity,HourlyPrecipIn,Conditions,Clouds,dailyrainin,SoftwareType,DateUTC
2013-12-02 00:12:00,43.0,28.0,-100.00,West,275,10.0,14.0,53,-99.99,,,0.00,,2013-12-02 07:12:00,
2013-12-02 00:21:00,43.0,28.0,-100.00,West,275,10.0,14.0,53,-99.99,,,0.00,,2013-12-02 07:21:00,
2013-12-02 00:42:00,42.0,27.0,-100.00,West,270,11.0,17.0,55,-99.99,,,0.00,,2013-12-02 07:42:00,
2013-12-02 00:52:00,42.0,27.0,-100.00,West,270,11.0,17.0,55,-99.99,,,0.00,,2013-12-02 07:52:00,
2013-12-02 01:00:00,44.0,27.0,-100.00,West,280,6.0,12.0,51,-99.99,,,0.00,,2013-12-02 08:00:00,
2013-12-02 01:12:00,45.0,27.0,-100.00,WNW,290,11.0,17.0,50,-99.99,,,0.00,,2013-12-02 08:12:00,
2013-12-02 01:22:00,45.0,27.0,-100.00,WNW,290,11.0,17.0,50,-99.99,,,0.00,,2013-12-02 08:22:00,
2013-12-02 01:42:00,44.0,27.0,-100.00,West,280,6.0,12.0,51,-99.99,,,0.00,,2013-12-02 08:42:00,
2013-12-02 01:52:00,44.0,27.0,-100.00,West,280,6.0,12.0,51,-99.99,,,0.00,,2013-12-02 08:52:00,
2013-12-02 02:43:00,42.0,28.0,-100.00,WNW,295,7.0,14.0,57,-99.99,,,0.00,,2013-12-02 09:43:00,
2013-12-02 02:53:00,42.0,28.0,-100.00,WNW,295,7.0,14.0,57,-99.99,,,0.00,,2013-12-02 09:53:00,
2013-12-02 03:00:00,41.0,30.0,-100.00,North,0,9.0,9.0,64,-99.99,,,0.00,,2013-12-02 10:00:00,
2013-12-02 03:12:00,42.0,29.0,-100.00,NNW,335,5.0,6.0,60,-99.99,,,0.00,,2013-12-02 10:12:00,
2013-12-02 03:23:00,42.0,29.0,-100.00,NNW,335,5.0,6.0,60,-99.99,,,0.00,,2013-12-02 10:23:00,
2013-12-02 03:42:00,41.0,30.0,-100.00,North,0,9.0,9.0,64,-99.99,,,0.00,,2013-12-02 10:42:00,
2013-12-02 03:52:00,41.0,30.0,-100.00,North,0,9.0,9.0,64,-99.99,,,0.00,,2013-12-02 10:52:00,
2013-12-02 04:00:00,39.0,33.0,-100.00,NNE,25,8.0,11.0,80,-99.99,,,0.00,,2013-12-02 11:00:00,
2013-12-02 04:42:00,39.0,33.0,-100.00,NNE,25,8.0,11.0,80,-99.99,,,0.00,,2013-12-02 11:42:00,
2013-12-02 04:52:00,39.0,33.0,-100.00,NNE,25,8.0,11.0,80,-99.99,,,0.00,,2013-12-02 11:52:00,
2013-12-02 05:01:00,38.0,35.0,-100.00,North,5,14.0,19.0,88,-99.99,,,0.00,,2013-12-02 12:01:00,
2013-12-02 05:42:00,38.0,35.0,-100.00,North,5,14.0,19.0,88,-99.99,,,0.00,,2013-12-02 12:42:00,
2013-12-02 05:52:00,38.0,35.0,-100.00,North,5,14.0,19.0,88,-99.99,,,0.00,,2013-12-02 12:52:00,
2013-12-02 06:21:00,36.0,33.0,-100.00,NE,40,12.0,16.0,90,-99.99,,,0.00,,2013-12-02 13:21:00,
2013-12-02 06:42:00,36.0,33.0,-100.00,NE,50,10.0,11.0,90,-99.99,,,0.00,,2013-12-02 13:42:00,
2013-12-02 06:52:00,36.0,33.0,-100.00,NE,50,10.0,11.0,90,-99.99,,,0.00,,2013-12-02 13:52:00,
2013-12-02 07:00:00,35.0,33.0,-100.00,East,80,11.0,12.0,91,-99.99,,,0.00,,2013-12-02 14:00:00,
2013-12-02 07:11:00,36.0,33.0,-100.00,East,90,7.0,9.0,90,-99.99,,,0.00,,2013-12-02 14:11:00,
2013-12-02 07:22:00,36.0,33.0,-100.00,East,90,7.0,9.0,90,-99.99,,,0.00,,2013-12-02 14:22:00,
2013-12-02 07:42:00,35.0,33.0,-100.00,East,80,11.0,12.0,91,-99.99,,,0.00,,2013-12-02 14:42:00,
2013-12-02 07:52:00,35.0,33.0,-100.00,East,80,11.0,12.0,91,-99.99,,,0.00,,2013-12-02 14:52:00,
2013-12-02 08:43:00,34.0,32.0,-100.00,SE,130,11.0,12.0,91,-99.99,,,0.00,,2013-12-02 15:43:00,
2013-12-02 08:53:00,34.0,32.0,-100.00,SE,130,11.0,12.0,91,-99.99,,,0.00,,2013-12-02 15:53:00,
2013-12-02 09:13:00,33.0,31.0,-100.00,ESE,115,11.0,14.0,91,-99.99,,,0.00,,2013-12-02 16:13:00,
2013-12-02 09:23:00,33.0,31.0,-100.00,ESE,115,11.0,14.0,91,-99.99,,,0.00,,2013-12-02 16:23:00,
2013-12-02 09:42:00,33.0,31.0,-100.00,SE,135,10.0,13.0,92,-99.99,,,0.00,,2013-12-02 16:42:00,
2013-12-02 09:53:00,33.0,31.0,-100.00,SE,135,10.0,13.0,92,-99.99,,,0.00,,2013-12-02 16:53:00,
2013-12-02 10:12:00,33.0,31.0,-100.00,SSE,150,12.0,15.0,92,-99.99,,,0.00,,2013-12-02 17:12:00,
2013-12-02 10:42:00,34.0,32.0,-100.00,SSE,150,16.0,18.0,92,-99.99,,,0.00,,2013-12-02 17:42:00,
2013-12-02 10:52:00,34.0,32.0,-100.00,SSE,150,16.0,18.0,92,-99.99,,,0.00,,2013-12-02 17:52:00,
2013-12-02 11:00:00,36.0,34.0,-100.00,SE,130,8.0,14.0,92,-99.99,,,0.00,,2013-12-02 18:00:00,
2013-12-02 11:12:00,34.0,32.0,-100.00,SE,145,11.0,16.0,92,-99.99,,,0.00,,2013-12-02 18:12:00,
2013-12-02 11:21:00,34.0,32.0,-100.00,SE,145,11.0,16.0,92,-99.99,,,0.00,,2013-12-02 18:21:00,
2013-12-02 11:42:00,36.0,34.0,-100.00,SE,130,8.0,14.0,92,-99.99,,,0.00,,2013-12-02 18:42:00,
2013-12-02 11:52:00,36.0,34.0,-100.00,SE,130,8.0,14.0,92,-99.99,,,0.00,,2013-12-02 18:52:00,
2013-12-02 12:22:00,35.0,33.0,-100.00,ESE,115,6.0,9.0,91,-99.99,,,0.00,,2013-12-02 19:22:00,
2013-12-02 12:42:00,38.0,35.0,-100.00,ESE,105,10.0,12.0,90,-99.99,,,0.00,,2013-12-02 19:42:00,
2013-12-02 12:52:00,38.0,35.0,-100.00,ESE,105,10.0,12.0,90,-99.99,,,0.00,,2013-12-02 19:52:00,
2013-12-02 13:11:00,36.0,33.0,-100.00,NE,40,12.0,14.0,88,-99.99,,,0.00,,2013-12-02 20:11:00,
2013-12-02 13:21:00,36.0,33.0,-100.00,NE,40,12.0,14.0,88,-99.99,,,0.00,,2013-12-02 20:21:00,
2013-12-02 13:42:00,36.0,33.0,-100.00,SE,125,7.0,9.0,90,-99.99,,,0.00,,2013-12-02 20:42:00,
2013-12-02 13:52:00,36.0,33.0,-100.00,SE,125,7.0,9.0,90,-99.99,,,0.00,,2013-12-02 20:52:00,
2013-12-02 14:01:00,36.0,33.0,-100.00,SE,130,8.0,12.0,88,-99.99,,,0.00,,2013-12-02 21:01:00,
2013-12-02 14:11:00,36.0,33.0,-100.00,ESE,120,9.0,10.0,89,-99.99,,,0.00,,2013-12-02 21:11:00,
2013-12-02 14:43:00,36.0,33.0,-100.00,SE,130,8.0,12.0,88,-99.99,,,0.00,,2013-12-02 21:43:00,
2013-12-02 14:53:00,36.0,33.0,-100.00,SE,130,8.0,12.0,88,-99.99,,,0.00,,2013-12-02 21:53:00,
2013-12-02 15:23:00,35.0,32.0,-100.00,ESE,115,8.0,12.0,89,-99.99,,,0.00,,2013-12-02 22:23:00,
2013-12-02 15:42:00,34.0,32.0,-100.00,SE,130,4.0,8.0,89,-99.99,,,0.00,,2013-12-02 22:42:00,
2013-12-02 15:53:00,34.0,32.0,-100.00,SE,130,4.0,8.0,89,-99.99,,,0.00,,2013-12-02 22:53:00,
2013-12-02 16:00:00,32.0,30.0,-100.00,North,-999,0.0,0.0,90,-99.99,,,0.00,,2013-12-02 23:00:00,
2013-12-02 16:12:00,33.0,30.0,-100.00,SSE,150,4.0,6.0,90,-99.99,,,0.00,,2013-12-02 23:12:00,
2013-12-02 16:22:00,33.0,30.0,-100.00,SSE,150,4.0,6.0,90,-99.99,,,0.00,,2013-12-02 23:22:00,
2013-12-02 16:42:00,32.0,30.0,-100.00,North,-999,0.0,0.0,90,-99.99,,,0.00,,2013-12-02 23:42:00,
2013-12-02 16:53:00,32.0,30.0,-100.00,North,-999,0.0,0.0,90,-99.99,,,0.00,,2013-12-02 23:53:00,
2013-12-02 17:00:00,33.0,31.0,-100.00,North,-999,0.0,0.0,91,-99.99,,,0.00,,2013-12-03 00:00:00,
2013-12-02 17:21:00,33.0,30.0,-100.00,North,-999,0.0,0.0,91,-99.99,,,0.00,,2013-12-03 00:21:00,
2013-12-02 17:42:00,33.0,31.0,-100.00,North,-999,0.0,0.0,91,-99.99,,,0.00,,2013-12-03 00:42:00,
2013-12-02 17:52:00,33.0,31.0,-100.00,North,-999,0.0,0.0,91,-99.99,,,0.00,,2013-12-03 00:52:00,
2013-12-02 18:00:00,32.0,30.0,-100.00,NNW,335,12.0,17.0,91,-99.99,,,0.00,,2013-12-03 01:00:00,
2013-12-02 18:21:00,33.0,30.0,-100.00,North,-999,0.0,0.0,91,-99.99,,,0.00,,2013-12-03 01:21:00,
2013-12-02 18:42:00,32.0,30.0,-100.00,NNW,335,12.0,17.0,91,-99.99,,,0.00,,2013-12-03 01:42:00,
2013-12-02 18:52:00,32.0,30.0,-100.00,NNW,335,12.0,17.0,91,-99.99,,,0.00,,2013-12-03 01:52:00,
2013-12-02 19:00:00,29.0,27.0,-100.00,North,10,1.0,19.0,91,-99.99,,,0.00,,2013-12-03 02:00:00,
2013-12-02 19:21:00,30.0,28.0,-100.00,North,10,11.0,24.0,91,-99.99,,,0.00,,2013-12-03 02:21:00,
2013-12-02 19:42:00,29.0,27.0,-100.00,North,10,1.0,19.0,91,-99.99,,,0.00,,2013-12-03 02:42:00,
2013-12-02 19:52:00,29.0,27.0,-100.00,North,10,1.0,19.0,91,-99.99,,,0.00,,2013-12-03 02:52:00,
2013-12-02 20:00:00,26.0,23.0,-100.00,North,350,16.0,21.0,88,-99.99,,,0.00,,2013-12-03 03:00:00,
2013-12-02 20:21:00,27.0,25.0,-100.00,North,0,12.0,21.0,89,-99.99,,,0.00,,2013-12-03 03:21:00,
2013-12-02 20:43:00,26.0,23.0,-100.00,North,350,16.0,21.0,88,-99.99,,,0.00,,2013-12-03 03:43:00,
2013-12-02 20:53:00,26.0,23.0,-100.00,North,350,16.0,21.0,88,-99.99,,,0.00,,2013-12-03 03:53:00,
2013-12-02 21:00:00,24.0,21.0,-100.00,North,355,5.0,21.0,87,-99.99,,,0.00,,2013-12-03 04:00:00,
2013-12-02 21:23:00,25.0,22.0,-100.00,North,0,24.0,30.0,88,-99.99,,,0.00,,2013-12-03 04:23:00,
2013-12-02 21:42:00,24.0,21.0,-100.00,North,355,5.0,21.0,87,-99.99,,,0.00,,2013-12-03 04:42:00,
2013-12-02 21:52:00,24.0,21.0,-100.00,North,355,5.0,21.0,87,-99.99,,,0.00,,2013-12-03 04:52:00,
2013-12-02 22:00:00,20.0,17.0,-100.00,North,0,22.0,27.0,85,-99.99,,,0.00,,2013-12-03 05:00:00,
2013-12-02 22:42:00,20.0,17.0,-100.00,North,0,22.0,27.0,85,-99.99,,,0.00,,2013-12-03 05:42:00,
2013-12-02 22:53:00,20.0,17.0,-100.00,North,0,22.0,27.0,85,-99.99,,,0.00,,2013-12-03 05:53:00,
2013-12-02 23:00:00,18.0,14.0,-100.00,North,350,11.0,22.0,84,-99.99,,,0.00,,2013-12-03 06:00:00,
2013-12-02 23:42:00,18.0,14.0,-100.00,North,350,11.0,22.0,84,-99.99,,,0.00,,2013-12-03 06:42:00,
2013-12-02 23:52:00,18.0,14.0,-100.00,North,350,11.0,22.0,84,-99.99,,,0.00,,2013-12-03 06:52:00,